nws-alerts: Checking more than four warning/county codes can delay the loading of your pages. You should use a cron job to get the data.
EllijayWeather Station Historical Data
Daily Summary for March 18, 2019 Units:  Metric    English   Both
Daily Weekly Monthly Yearly Custom
  High: Low: Average:
Temperature: 12.4 °C -1.2 °C 5.2 °C
Dew Point: -1 °C -10.4 °C -4.8 °C
Humidity: 90% 21% 55%
Wind Speed: 20.9km/h 0km/h 1.3km/h
Wind Gust: 32.2km/h - -
Wind- - WSW
Pressure: 1028.7 hPa 1024.6 hPa -
Precipitation: 0 mm    
Historical Graphs
 
 
Tabular Data for March 18, 2019
Time Temperature Dew Point Pressure Wind Wind Speed Wind Gust Humidity Rainfall Rate (Hourly) solar
00:04 2.3 °C -1.5 °C 1024.6 hPa Calm     76% 0 mm meteobridge W/m2
00:09 2.2 °C -1.4 °C 1024.6 hPa Calm     77% 0 mm meteobridge W/m2
00:14 2.1 °C -1.5 °C 1024.6 hPa Calm     77% 0 mm meteobridge W/m2
00:19 2 °C -1.6 °C 1024.9 hPa Calm     77% 0 mm meteobridge W/m2
00:24 1.9 °C -1.7 °C 1024.6 hPa Calm     77% 0 mm meteobridge W/m2
00:29 1.8 °C -1.8 °C 1024.9 hPa Calm     77% 0 mm meteobridge W/m2
00:34 1.7 °C -1.7 °C 1024.9 hPa Calm     78% 0 mm meteobridge W/m2
00:39 1.6 °C -1.6 °C 1024.6 hPa Calm     79% 0 mm meteobridge W/m2
00:44 1.5 °C -1.7 °C 1024.6 hPa Calm     79% 0 mm meteobridge W/m2
00:49 1.4 °C -1.8 °C 1024.9 hPa Calm     79% 0 mm meteobridge W/m2
00:54 1.4 °C -1.7 °C 1024.6 hPa Calm     80% 0 mm meteobridge W/m2
00:59 1.3 °C -1.8 °C 1024.9 hPa Calm     80% 0 mm meteobridge W/m2
01:04 1.3 °C -1.6 °C 1024.6 hPa Calm     81% 0 mm meteobridge W/m2
01:09 1.2 °C -1.7 °C 1024.6 hPa Calm     81% 0 mm meteobridge W/m2
01:14 1.1 °C -1.8 °C 1024.6 hPa Calm     81% 0 mm meteobridge W/m2
01:19 1 °C -1.7 °C 1024.6 hPa Calm     82% 0 mm meteobridge W/m2
01:24 0.9 °C -1.7 °C 1024.6 hPa Calm     83% 0 mm meteobridge W/m2
01:29 0.8 °C -1.9 °C 1024.6 hPa Calm     82% 0 mm meteobridge W/m2
01:34 0.7 °C -1.9 °C 1024.6 hPa Calm     83% 0 mm meteobridge W/m2
01:39 0.6 °C -2 °C 1024.6 hPa Calm     83% 0 mm meteobridge W/m2
01:44 0.6 °C -1.8 °C 1024.6 hPa Calm     84% 0 mm meteobridge W/m2
01:49 0.4 °C -2 °C 1024.6 hPa Calm     84% 0 mm meteobridge W/m2
01:54 0.3 °C -2.1 °C 1024.6 hPa Calm     84% 0 mm meteobridge W/m2
01:59 0.3 °C -1.9 °C 1024.6 hPa Calm     85% 0 mm meteobridge W/m2
02:04 0.2 °C -2 °C 1024.9 hPa Calm     85% 0 mm meteobridge W/m2
02:09 0.1 °C -2 °C 1024.6 hPa Calm     86% 0 mm meteobridge W/m2
02:14 0.1 °C -2 °C 1024.9 hPa Calm     86% 0 mm meteobridge W/m2
02:19 0 °C -2.1 °C 1024.9 hPa Calm     86% 0 mm meteobridge W/m2
02:24 -0.1 °C -2.2 °C 1024.9 hPa Calm     86% 0 mm meteobridge W/m2
02:29 -0.1 °C -2.2 °C 1024.9 hPa Calm     86% 0 mm meteobridge W/m2
02:34 -0.2 °C -2.1 °C 1024.9 hPa Calm     87% 0 mm meteobridge W/m2
02:39 -0.3 °C -2.2 °C 1024.9 hPa Calm     87% 0 mm meteobridge W/m2
02:44 -0.4 °C -2.3 °C 1024.9 hPa Calm     87% 0 mm meteobridge W/m2
02:49 -0.4 °C -2.3 °C 1024.9 hPa Calm     87% 0 mm meteobridge W/m2
02:54 -0.5 °C -2.2 °C 1024.9 hPa Calm     88% 0 mm meteobridge W/m2
02:59 -0.6 °C -2.3 °C 1024.9 hPa Calm     88% 0 mm meteobridge W/m2
03:04 -0.6 °C -2.3 °C 1024.9 hPa Calm     88% 0 mm meteobridge W/m2
03:09 -0.6 °C -2.3 °C 1024.9 hPa Calm     88% 0 mm meteobridge W/m2
03:14 -0.7 °C -2.4 °C 1024.9 hPa Calm     88% 0 mm meteobridge W/m2
03:19 -0.8 °C -2.5 °C 1024.9 hPa Calm     88% 0 mm meteobridge W/m2
03:24 -0.8 °C -2.5 °C 1024.9 hPa Calm     88% 0 mm meteobridge W/m2
03:29 -0.9 °C -2.6 °C 1024.9 hPa Calm     88% 0 mm meteobridge W/m2
03:34 -0.9 °C -2.5 °C 1024.9 hPa Calm     89% 0 mm meteobridge W/m2
03:39 -1 °C -2.6 °C 1024.9 hPa Calm     89% 0 mm meteobridge W/m2
03:44 -1.1 °C -2.7 °C 1024.9 hPa Calm     89% 0 mm meteobridge W/m2
03:49 -1.1 °C -2.7 °C 1024.9 hPa Calm     89% 0 mm meteobridge W/m2
03:54 -1.1 °C -2.7 °C 1024.9 hPa Calm     89% 0 mm meteobridge W/m2
03:59 -1.2 °C -2.8 °C 1024.9 hPa Calm     89% 0 mm meteobridge W/m2
04:04 -1.2 °C -2.6 °C 1024.9 hPa Calm     90% 0 mm meteobridge W/m2
04:09 -1.2 °C -2.6 °C 1024.9 hPa Calm     90% 0 mm meteobridge W/m2
04:14 -1.2 °C -2.6 °C 1024.9 hPa Calm     90% 0 mm meteobridge W/m2
04:19 -1.2 °C -2.6 °C 1024.9 hPa Calm     90% 0 mm meteobridge W/m2
04:24 -1.2 °C -2.6 °C 1024.9 hPa Calm     90% 0 mm meteobridge W/m2
04:29 -1.2 °C -2.6 °C 1024.9 hPa Calm     90% 0 mm meteobridge W/m2
04:34 -1.1 °C -2.7 °C 1024.9 hPa Calm     89% 0 mm meteobridge W/m2
04:39 -1.1 °C -2.7 °C 1024.9 hPa Calm     89% 0 mm meteobridge W/m2
04:44 -1.1 °C -2.7 °C 1024.9 hPa Calm     89% 0 mm meteobridge W/m2
04:49 -1.1 °C -2.7 °C 1024.9 hPa Calm     89% 0 mm meteobridge W/m2
04:54 -1.1 °C -2.7 °C 1024.6 hPa Calm     89% 0 mm meteobridge W/m2
04:59 -1 °C -2.6 °C 1024.6 hPa Calm     89% 0 mm meteobridge W/m2
05:04 -1 °C -2.6 °C 1024.6 hPa Calm     89% 0 mm meteobridge W/m2
05:09 -0.9 °C -2.6 °C 1024.6 hPa Calm     88% 0 mm meteobridge W/m2
05:14 -0.9 °C -2.5 °C 1024.6 hPa Calm     89% 0 mm meteobridge W/m2
05:19 -0.8 °C -2.4 °C 1024.6 hPa Calm     89% 0 mm meteobridge W/m2
05:24 -0.9 °C -2.6 °C 1024.6 hPa Calm     88% 0 mm meteobridge W/m2
05:29 -0.8 °C -2.5 °C 1024.6 hPa Calm     88% 0 mm meteobridge W/m2
05:34 -0.9 °C -2.6 °C 1024.6 hPa Calm     88% 0 mm meteobridge W/m2
05:39 -0.9 °C -2.6 °C 1024.6 hPa Calm     88% 0 mm meteobridge W/m2
05:44 -0.9 °C -2.6 °C 1024.6 hPa Calm     88% 0 mm meteobridge W/m2
05:49 -0.9 °C -2.6 °C 1024.9 hPa Calm     88% 0 mm meteobridge W/m2
05:54 -0.9 °C -2.6 °C 1024.6 hPa Calm   1.6 km/h 88% 0 mm meteobridge W/m2
05:59 -0.9 °C -2.6 °C 1024.6 hPa Calm     88% 0 mm meteobridge W/m2
06:04 -1 °C -2.7 °C 1024.6 hPa Calm     88% 0 mm meteobridge W/m2
06:09 -0.9 °C -2.6 °C 1024.9 hPa Calm     88% 0 mm meteobridge W/m2
06:14 -0.9 °C -2.6 °C 1024.9 hPa Calm     88% 0 mm meteobridge W/m2
06:19 -0.9 °C -2.6 °C 1024.9 hPa Calm     88% 0 mm meteobridge W/m2
06:24 -0.9 °C -2.6 °C 1024.9 hPa Calm     88% 0 mm meteobridge W/m2
06:29 -0.9 °C -2.6 °C 1024.9 hPa Calm     88% 0 mm meteobridge W/m2
06:33 -0.8 °C -2.5 °C 1024.9 hPa Calm     88% 0 mm meteobridge W/m2
06:39 -0.7 °C -2.4 °C 1024.9 hPa Calm     88% 0 mm meteobridge W/m2
06:44 -0.7 °C -2.6 °C 1024.9 hPa Calm     87% 0 mm meteobridge W/m2
06:49 -0.7 °C -2.6 °C 1024.9 hPa Calm     87% 0 mm meteobridge W/m2
06:54 -0.7 °C -2.6 °C 1024.9 hPa Calm     87% 0 mm meteobridge W/m2
06:59 -0.7 °C -2.4 °C 1025.3 hPa Calm     88% 0 mm meteobridge W/m2
07:04 -0.8 °C -2.5 °C 1025.3 hPa Calm     88% 0 mm meteobridge W/m2
07:09 -0.7 °C -2.4 °C 1025.3 hPa Calm     88% 0 mm meteobridge W/m2
07:14 -0.8 °C -2.5 °C 1025.3 hPa Calm     88% 0 mm meteobridge W/m2
07:18 -0.8 °C -2.7 °C 1025.3 hPa Calm     87% 0 mm meteobridge W/m2
07:24 -0.8 °C -2.5 °C 1025.3 hPa Calm     88% 0 mm meteobridge W/m2
07:29 -0.8 °C -2.7 °C 1025.3 hPa Calm     87% 0 mm meteobridge W/m2
07:34 -0.8 °C -2.7 °C 1025.3 hPa Calm     87% 0 mm meteobridge W/m2
07:39 -0.8 °C -2.7 °C 1025.6 hPa Calm     87% 0 mm meteobridge W/m2
07:44 -0.8 °C -2.5 °C 1025.6 hPa Calm     88% 0 mm meteobridge W/m2
07:49 -0.8 °C -2.4 °C 1025.6 hPa Calm     89% 0 mm meteobridge W/m2
07:54 -0.8 °C -2.4 °C 1025.6 hPa Calm     89% 0 mm meteobridge W/m2
07:59 -0.7 °C -2.4 °C 1025.6 hPa Calm     88% 0 mm meteobridge W/m2
08:04 -0.7 °C -2.4 °C 1026 hPa Calm     88% 0 mm meteobridge W/m2
08:09 -0.7 °C -2.4 °C 1026 hPa Calm     88% 0 mm meteobridge W/m2
08:14 -0.7 °C -2.4 °C 1026 hPa Calm     88% 0 mm meteobridge W/m2
08:19 -0.6 °C -2.3 °C 1026 hPa Calm     88% 0 mm meteobridge W/m2
08:24 -0.4 °C -2 °C 1026 hPa Calm     89% 0 mm meteobridge W/m2
08:29 -0.3 °C -2 °C 1026 hPa Calm     88% 0 mm meteobridge W/m2
08:34 0 °C -1.9 °C 1026 hPa Calm     87% 0 mm meteobridge W/m2
08:39 0.3 °C -1.6 °C 1026 hPa Calm     87% 0 mm meteobridge W/m2
08:44 0.6 °C -1.5 °C 1026 hPa Calm     86% 0 mm meteobridge W/m2
08:49 1.3 °C -1.3 °C 1026 hPa Calm   1.6 km/h 83% 0 mm meteobridge W/m2
08:54 1.9 °C -1 °C 1026.3 hPa Calm   1.6 km/h 81% 0 mm meteobridge W/m2
08:59 2.4 °C -1.4 °C 1026.3 hPa Calm   1.6 km/h 76% 0 mm meteobridge W/m2
09:04 2.9 °C -1.3 °C 1026.3 hPa ENE 11.1 km/h 11.3 km/h 74% 0 mm meteobridge W/m2
09:09 3.4 °C -1.2 °C 1026.6 hPa Calm   1.6 km/h 72% 0 mm meteobridge W/m2
09:14 3.8 °C -1.2 °C 1026.6 hPa North 3.2 km/h 3.2 km/h 70% 0 mm meteobridge W/m2
09:19 4.2 °C -1.2 °C 1027 hPa Calm   8 km/h 68% 0 mm meteobridge W/m2
09:24 4.5 °C -1.3 °C 1027 hPa Calm   6.4 km/h 66% 0 mm meteobridge W/m2
09:29 4.7 °C -1.1 °C 1027 hPa Calm     66% 0 mm meteobridge W/m2
09:34 4.9 °C -1.3 °C 1027 hPa North 1.4 km/h 4.8 km/h 64% 0 mm meteobridge W/m2
09:39 5.1 °C -1.1 °C 1027.3 hPa Calm   3.2 km/h 64% 0 mm meteobridge W/m2
09:44 5.2 °C -1.3 °C 1027.3 hPa Calm   9.7 km/h 63% 0 mm meteobridge W/m2
09:49 5.3 °C -1.4 °C 1027.3 hPa Calm   6.4 km/h 62% 0 mm meteobridge W/m2
09:54 5.4 °C -1.3 °C 1027.3 hPa North 4.7 km/h 8 km/h 62% 0 mm meteobridge W/m2
09:59 5.6 °C -1.1 °C 1027.3 hPa Calm   8 km/h 62% 0 mm meteobridge W/m2
10:04 5.7 °C -1.2 °C 1027.3 hPa NE 1.4 km/h 3.2 km/h 61% 0 mm meteobridge W/m2
10:09 5.9 °C -1 °C 1027.3 hPa Calm   6.4 km/h 61% 0 mm meteobridge W/m2
10:14 6.2 °C -1 °C 1027.3 hPa Calm   4.8 km/h 60% 0 mm meteobridge W/m2
10:19 6.3 °C -1.1 °C 1027.3 hPa West 4.7 km/h 19.3 km/h 59% 0 mm meteobridge W/m2
10:24 6.4 °C -1.3 °C 1027.3 hPa Calm   3.2 km/h 58% 0 mm meteobridge W/m2
10:29 6.7 °C -1.2 °C 1027.3 hPa Calm   17.7 km/h 57% 0 mm meteobridge W/m2
10:34 6.8 °C -1.4 °C 1027.3 hPa Calm   6.4 km/h 56% 0 mm meteobridge W/m2
10:39 7.2 °C -1.7 °C 1027.3 hPa West 3.2 km/h 11.3 km/h 53% 0 mm meteobridge W/m2
10:44 7.3 °C -2.2 °C 1027.3 hPa ENE 4.7 km/h 12.9 km/h 51% 0 mm meteobridge W/m2
10:49 7.6 °C -1.9 °C 1027.3 hPa Calm   11.3 km/h 51% 0 mm meteobridge W/m2
10:54 7.9 °C -1.6 °C 1027.3 hPa NNE 1.4 km/h 1.6 km/h 51% 0 mm meteobridge W/m2
10:59 8.2 °C -1.9 °C 1027.3 hPa Calm   8 km/h 49% 0 mm meteobridge W/m2
11:04 8.3 °C -1.8 °C 1027.7 hPa Calm   11.3 km/h 49% 0 mm meteobridge W/m2
11:09 8.4 °C -2 °C 1027.3 hPa NNW 1.4 km/h 8 km/h 48% 0 mm meteobridge W/m2
11:14 8.8 °C -1.3 °C 1027.3 hPa Calm   3.2 km/h 49% 0 mm meteobridge W/m2
11:19 9 °C -2.3 °C 1027.7 hPa Calm   9.7 km/h 45% 0 mm meteobridge W/m2
11:24 9.2 °C -3.4 °C 1028 hPa Calm   12.9 km/h 41% 0 mm meteobridge W/m2
11:29 9.3 °C -3.3 °C 1028 hPa WNW 9.7 km/h 16.1 km/h 41% 0 mm meteobridge W/m2
11:34 9.4 °C -2.9 °C 1028 hPa WNW 1.4 km/h 8 km/h 42% 0 mm meteobridge W/m2
11:39 9.7 °C -3.6 °C 1028 hPa NW 3.2 km/h 9.7 km/h 39% 0 mm meteobridge W/m2
11:44 9.8 °C -3.5 °C 1028 hPa West 1.4 km/h 1.6 km/h 39% 0 mm meteobridge W/m2
11:49 10.1 °C -2.6 °C 1028 hPa Calm     41% 0 mm meteobridge W/m2
11:54 10.1 °C -3.2 °C 1027.7 hPa NW 4.7 km/h 6.4 km/h 39% 0 mm meteobridge W/m2
11:59 10.1 °C -3.6 °C 1027.7 hPa WNW 1.4 km/h 3.2 km/h 38% 0 mm meteobridge W/m2
12:04 10.3 °C -3.8 °C 1027.3 hPa Calm   3.2 km/h 37% 0 mm meteobridge W/m2
12:09 10.6 °C -4.2 °C 1027.3 hPa Calm   12.9 km/h 35% 0 mm meteobridge W/m2
12:14 10.6 °C -4.6 °C 1027.3 hPa Calm   4.8 km/h 34% 0 mm meteobridge W/m2
12:19 10.7 °C -4.5 °C 1027.3 hPa WNW 1.4 km/h 6.4 km/h 34% 0 mm meteobridge W/m2
12:24 10.7 °C -4.5 °C 1027.3 hPa South 1.4 km/h 6.4 km/h 34% 0 mm meteobridge W/m2
12:29 10.8 °C -5.2 °C 1027.3 hPa West 7.9 km/h 12.9 km/h 32% 0 mm meteobridge W/m2
12:34 10.9 °C -5.2 °C 1027.3 hPa NNW 1.4 km/h 4.8 km/h 32% 0 mm meteobridge W/m2
12:39 11.2 °C -4.9 °C 1027.3 hPa Calm     32% 0 mm meteobridge W/m2
12:44 11.3 °C -4.8 °C 1027 hPa West 3.2 km/h 4.8 km/h 32% 0 mm meteobridge W/m2
12:49 11.2 °C -4.9 °C 1027 hPa Calm   8 km/h 32% 0 mm meteobridge W/m2
12:54 11.3 °C -4.4 °C 1027.3 hPa Calm   9.7 km/h 33% 0 mm meteobridge W/m2
12:59 11.4 °C -4.3 °C 1027 hPa Calm   4.8 km/h 33% 0 mm meteobridge W/m2
13:04 11.3 °C -4.8 °C 1027.3 hPa Calm   6.4 km/h 32% 0 mm meteobridge W/m2
13:09 11.3 °C -4 °C 1027 hPa Calm   1.6 km/h 34% 0 mm meteobridge W/m2
13:14 11.5 °C -4.6 °C 1027 hPa North 4.7 km/h 11.3 km/h 32% 0 mm meteobridge W/m2
13:19 11.7 °C -3.7 °C 1026.6 hPa Calm   11.3 km/h 34% 0 mm meteobridge W/m2
13:24 11.9 °C -4.7 °C 1026.6 hPa Calm   4.8 km/h 31% 0 mm meteobridge W/m2
13:29 11.8 °C -5.2 °C 1026.6 hPa WNW 4.7 km/h 9.7 km/h 30% 0 mm meteobridge W/m2
13:34 11.8 °C -4.8 °C 1026.6 hPa WNW 7.9 km/h 9.7 km/h 31% 0 mm meteobridge W/m2
13:39 11.9 °C -4.3 °C 1026.6 hPa WNW 3.2 km/h 4.8 km/h 32% 0 mm meteobridge W/m2
13:44 12.1 °C -3.7 °C 1026.6 hPa WNW 4.7 km/h 9.7 km/h 33% 0 mm meteobridge W/m2
13:49 12 °C -3.8 °C 1026.6 hPa NE 4.7 km/h 14.5 km/h 33% 0 mm meteobridge W/m2
13:54 12 °C -3.4 °C 1026.3 hPa NNW 3.2 km/h 11.3 km/h 34% 0 mm meteobridge W/m2
13:59 12.1 °C -3.3 °C 1026.3 hPa NW 4.7 km/h 6.4 km/h 34% 0 mm meteobridge W/m2
14:04 12.3 °C -3.5 °C 1026.3 hPa NNW 6.4 km/h 11.3 km/h 33% 0 mm meteobridge W/m2
14:09 12.4 °C -3.8 °C 1026.3 hPa Calm   8 km/h 32% 0 mm meteobridge W/m2
14:14 12.2 °C -4.9 °C 1026.3 hPa Calm   9.7 km/h 30% 0 mm meteobridge W/m2
14:19 12.2 °C -5.3 °C 1026.3 hPa NNE 3.2 km/h 14.5 km/h 29% 0 mm meteobridge W/m2
14:24 12.1 °C -5.9 °C 1026.6 hPa Calm   8 km/h 28% 0 mm meteobridge W/m2
14:29 12.1 °C -5.4 °C 1026.6 hPa NNW 4.7 km/h 14.5 km/h 29% 0 mm meteobridge W/m2
14:34 11.9 °C -6 °C 1026.6 hPa WSW 1.4 km/h 11.3 km/h 28% 0 mm meteobridge W/m2
14:39 12 °C -6.4 °C 1026.3 hPa Calm   32.2 km/h 27% 0 mm meteobridge W/m2
14:44 11.8 °C -7.6 °C 1026.3 hPa North 4.7 km/h 16.1 km/h 25% 0 mm meteobridge W/m2
14:49 11.7 °C -7.7 °C 1026 hPa WNW 1.4 km/h 24.1 km/h 25% 0 mm meteobridge W/m2
14:54 11.5 °C -7.4 °C 1026 hPa East 13 km/h 16.1 km/h 26% 0 mm meteobridge W/m2
14:59 11.4 °C -7 °C 1026 hPa West 1.4 km/h 19.3 km/h 27% 0 mm meteobridge W/m2
15:04 11.6 °C -6.8 °C 1025.6 hPa Calm   12.9 km/h 27% 0 mm meteobridge W/m2
15:09 11.7 °C -7.2 °C 1026 hPa North 9.7 km/h 11.3 km/h 26% 0 mm meteobridge W/m2
15:14 11.8 °C -6.6 °C 1025.6 hPa NW 6.4 km/h 16.1 km/h 27% 0 mm meteobridge W/m2
15:19 11.8 °C -7.6 °C 1026 hPa NW 3.2 km/h 3.2 km/h 25% 0 mm meteobridge W/m2
15:24 11.9 °C -7 °C 1025.6 hPa Calm   11.3 km/h 26% 0 mm meteobridge W/m2
15:29 11.9 °C -7.5 °C 1025.6 hPa WNW 3.2 km/h 14.5 km/h 25% 0 mm meteobridge W/m2
15:34 11.8 °C -7.6 °C 1025.6 hPa North 1.4 km/h 4.8 km/h 25% 0 mm meteobridge W/m2
15:39 11.8 °C -7.6 °C 1025.6 hPa NNW 11.1 km/h 16.1 km/h 25% 0 mm meteobridge W/m2
15:44 11.8 °C -7.1 °C 1025.6 hPa WNW 11.1 km/h 11.3 km/h 26% 0 mm meteobridge W/m2
15:49 11.8 °C -7.6 °C 1025.6 hPa NW 6.4 km/h 6.4 km/h 25% 0 mm meteobridge W/m2
15:54 11.9 °C -8 °C 1025.6 hPa North 1.4 km/h 12.9 km/h 24% 0 mm meteobridge W/m2
15:59 11.7 °C -8.2 °C 1026 hPa NE 14.3 km/h 14.5 km/h 24% 0 mm meteobridge W/m2
16:04 11.6 °C -8.3 °C 1026 hPa WNW 4.7 km/h 16.1 km/h 24% 0 mm meteobridge W/m2
16:09 11.6 °C -8.3 °C 1026 hPa Calm   12.9 km/h 24% 0 mm meteobridge W/m2
16:14 11.6 °C -8.8 °C 1026 hPa Calm   9.7 km/h 23% 0 mm meteobridge W/m2
16:19 11.6 °C -9.4 °C 1026 hPa Calm   17.7 km/h 22% 0 mm meteobridge W/m2
16:24 11.6 °C -8.8 °C 1025.6 hPa NNW 4.7 km/h 12.9 km/h 23% 0 mm meteobridge W/m2
16:29 11.5 °C -9.5 °C 1025.6 hPa NW 3.2 km/h 9.7 km/h 22% 0 mm meteobridge W/m2
16:34 11.4 °C -8.5 °C 1025.6 hPa Calm   4.8 km/h 24% 0 mm meteobridge W/m2
16:39 11.3 °C -9.7 °C 1025.6 hPa WNW 7.9 km/h 20.9 km/h 22% 0 mm meteobridge W/m2
16:44 11.2 °C -8.6 °C 1025.6 hPa WNW 3.2 km/h 16.1 km/h 24% 0 mm meteobridge W/m2
16:49 11.2 °C -10.3 °C 1025.6 hPa Calm   12.9 km/h 21% 0 mm meteobridge W/m2
16:54 11.1 °C -10.4 °C 1025.6 hPa WNW 11.1 km/h 20.9 km/h 21% 0 mm meteobridge W/m2
16:59 11.1 °C -9.3 °C 1025.6 hPa West 6.4 km/h 14.5 km/h 23% 0 mm meteobridge W/m2
17:04 11.1 °C -9.8 °C 1025.3 hPa WNW 14.3 km/h 14.5 km/h 22% 0 mm meteobridge W/m2
17:09 11.1 °C -8.7 °C 1025.3 hPa ENE 20.9 km/h 20.9 km/h 24% 0 mm meteobridge W/m2
17:14 11.1 °C -9.3 °C 1025.3 hPa West 6.4 km/h 12.9 km/h 23% 0 mm meteobridge W/m2
17:19 10.9 °C -9.4 °C 1025.3 hPa Calm   6.4 km/h 23% 0 mm meteobridge W/m2
17:24 11 °C -9.4 °C 1025.6 hPa NNW 13 km/h 12.9 km/h 23% 0 mm meteobridge W/m2
17:29 11 °C -9.9 °C 1025.6 hPa Calm   11.3 km/h 22% 0 mm meteobridge W/m2
17:34 10.9 °C -9.4 °C 1025.6 hPa NNE 1.4 km/h 6.4 km/h 23% 0 mm meteobridge W/m2
17:39 11 °C -9.4 °C 1025.6 hPa North 9.7 km/h 22.5 km/h 23% 0 mm meteobridge W/m2
17:44 10.9 °C -9.4 °C 1025.6 hPa NNE 3.2 km/h 8 km/h 23% 0 mm meteobridge W/m2
17:49 10.7 °C -10.2 °C 1026 hPa WNW 11.1 km/h 14.5 km/h 22% 0 mm meteobridge W/m2
17:54 10.7 °C -10.2 °C 1025.6 hPa Calm   12.9 km/h 22% 0 mm meteobridge W/m2
17:59 10.6 °C -10.3 °C 1026 hPa NW 3.2 km/h 8 km/h 22% 0 mm meteobridge W/m2
18:04 10.5 °C -9.8 °C 1026 hPa Calm   8 km/h 23% 0 mm meteobridge W/m2
18:09 10.4 °C -9.9 °C 1026 hPa Calm   6.4 km/h 23% 0 mm meteobridge W/m2
18:14 10.3 °C -9.4 °C 1026 hPa NNE 1.4 km/h 19.3 km/h 24% 0 mm meteobridge W/m2
18:19 10.2 °C -9.5 °C 1026 hPa WNW 9.7 km/h 9.7 km/h 24% 0 mm meteobridge W/m2
18:24 10.1 °C -9.1 °C 1026 hPa North 6.4 km/h 6.4 km/h 25% 0 mm meteobridge W/m2
18:29 10 °C -9.7 °C 1026.3 hPa WNW 1.4 km/h 8 km/h 24% 0 mm meteobridge W/m2
18:34 10 °C -8.6 °C 1026.3 hPa Calm   1.6 km/h 26% 0 mm meteobridge W/m2
18:39 10 °C -8.6 °C 1026.6 hPa Calm   6.4 km/h 26% 0 mm meteobridge W/m2
18:44 9.9 °C -8.7 °C 1026.6 hPa Calm   6.4 km/h 26% 0 mm meteobridge W/m2
18:49 9.8 °C -8.8 °C 1026.6 hPa Calm   8 km/h 26% 0 mm meteobridge W/m2
18:54 9.7 °C -9.4 °C 1026.6 hPa WNW 4.7 km/h 8 km/h 25% 0 mm meteobridge W/m2
18:59 9.5 °C -9.6 °C 1027 hPa Calm   12.9 km/h 25% 0 mm meteobridge W/m2
19:04 9.4 °C -9.2 °C 1027 hPa Calm   1.6 km/h 26% 0 mm meteobridge W/m2
19:09 9.2 °C -8.8 °C 1027 hPa NW 3.2 km/h 9.7 km/h 27% 0 mm meteobridge W/m2
19:14 9.1 °C -8.9 °C 1027 hPa WNW 9.7 km/h 9.7 km/h 27% 0 mm meteobridge W/m2
19:19 9 °C -10 °C 1027 hPa NE 4.7 km/h 8 km/h 25% 0 mm meteobridge W/m2
19:24 8.9 °C -9.1 °C 1027.3 hPa NW 1.4 km/h 3.2 km/h 27% 0 mm meteobridge W/m2
19:29 8.8 °C -9.2 °C 1027.3 hPa North 1.4 km/h 11.3 km/h 27% 0 mm meteobridge W/m2
19:34 8.7 °C -8.8 °C 1027.3 hPa NNW 1.4 km/h 1.6 km/h 28% 0 mm meteobridge W/m2
19:39 8.6 °C -9.4 °C 1027.3 hPa Calm   12.9 km/h 27% 0 mm meteobridge W/m2
19:44 8.4 °C -10 °C 1027.3 hPa Calm   1.6 km/h 26% 0 mm meteobridge W/m2
19:49 8.3 °C -10.1 °C 1027.7 hPa Calm   1.6 km/h 26% 0 mm meteobridge W/m2
19:54 8.2 °C -9.7 °C 1027.3 hPa Calm   3.2 km/h 27% 0 mm meteobridge W/m2
19:59 8.1 °C -8.9 °C 1027.7 hPa NNW 1.4 km/h 1.6 km/h 29% 0 mm meteobridge W/m2
20:04 7.9 °C -10 °C 1027.7 hPa Calm   9.7 km/h 27% 0 mm meteobridge W/m2
20:09 7.8 °C -10 °C 1027.7 hPa Calm   6.4 km/h 27% 0 mm meteobridge W/m2
20:14 7.7 °C -9.7 °C 1027.7 hPa Calm     28% 0 mm meteobridge W/m2
20:19 7.7 °C -10.1 °C 1028 hPa Calm   6.4 km/h 27% 0 mm meteobridge W/m2
20:24 7.5 °C -9.8 °C 1028 hPa Calm     28% 0 mm meteobridge W/m2
20:29 7.4 °C -9.1 °C 1028 hPa Calm     30% 0 mm meteobridge W/m2
20:34 7.3 °C -9.6 °C 1028.3 hPa Calm     29% 0 mm meteobridge W/m2
20:39 7.2 °C -8.4 °C 1028 hPa Calm     32% 0 mm meteobridge W/m2
20:44 6.9 °C -9.1 °C 1028 hPa Calm     31% 0 mm meteobridge W/m2
20:49 6.7 °C -8.8 °C 1028 hPa Calm     32% 0 mm meteobridge W/m2
20:54 6.5 °C -8.2 °C 1028 hPa Calm     34% 0 mm meteobridge W/m2
20:59 6.2 °C -7.8 °C 1028 hPa Calm     36% 0 mm meteobridge W/m2
21:04 6 °C -8.3 °C 1028 hPa Calm     35% 0 mm meteobridge W/m2
21:09 5.8 °C -8.1 °C 1028.3 hPa Calm     36% 0 mm meteobridge W/m2
21:14 5.4 °C -7.1 °C 1028 hPa Calm     40% 0 mm meteobridge W/m2
21:19 5.2 °C -7.3 °C 1028.3 hPa Calm     40% 0 mm meteobridge W/m2
21:24 4.9 °C -6.9 °C 1028.3 hPa Calm     42% 0 mm meteobridge W/m2
21:29 4.7 °C -7.4 °C 1028.3 hPa Calm     41% 0 mm meteobridge W/m2
21:34 4.6 °C -8.2 °C 1028.3 hPa Calm     39% 0 mm meteobridge W/m2
21:39 4.3 °C -6.3 °C 1028.3 hPa Calm     46% 0 mm meteobridge W/m2
21:44 4.1 °C -7.4 °C 1028.3 hPa Calm     43% 0 mm meteobridge W/m2
21:49 3.9 °C -7.3 °C 1028.3 hPa Calm     44% 0 mm meteobridge W/m2
21:54 3.8 °C -7 °C 1028.3 hPa Calm     45% 0 mm meteobridge W/m2
21:59 3.7 °C -7.7 °C 1028.3 hPa Calm   1.6 km/h 43% 0 mm meteobridge W/m2
22:04 3.6 °C -6.9 °C 1028.3 hPa Calm     46% 0 mm meteobridge W/m2
22:09 3.6 °C -6.9 °C 1028.7 hPa Calm   1.6 km/h 46% 0 mm meteobridge W/m2
22:14 3.6 °C -7.2 °C 1028.3 hPa Calm   1.6 km/h 45% 0 mm meteobridge W/m2
22:19 3.6 °C -7.8 °C 1028.3 hPa Calm   1.6 km/h 43% 0 mm meteobridge W/m2
22:24 3.7 °C -7.7 °C 1028.3 hPa Calm   3.2 km/h 43% 0 mm meteobridge W/m2
22:29 3.8 °C -6.8 °C 1028.3 hPa Calm     46% 0 mm meteobridge W/m2
22:34 3.8 °C -6.5 °C 1028.3 hPa Calm   1.6 km/h 47% 0 mm meteobridge W/m2
22:39 3.8 °C -6.2 °C 1028.3 hPa Calm     48% 0 mm meteobridge W/m2
22:44 3.8 °C -7.3 °C 1028.3 hPa Calm     44% 0 mm meteobridge W/m2
22:49 4 °C -6.9 °C 1028.3 hPa Calm     45% 0 mm meteobridge W/m2
22:54 4 °C -6 °C 1028.3 hPa Calm     48% 0 mm meteobridge W/m2
22:59 3.9 °C -7 °C 1028.3 hPa Calm     45% 0 mm meteobridge W/m2
23:04 3.9 °C -6.7 °C 1028.7 hPa Calm     46% 0 mm meteobridge W/m2
23:09 3.9 °C -7.3 °C 1028.7 hPa Calm     44% 0 mm meteobridge W/m2
23:14 3.9 °C -7 °C 1028.7 hPa Calm     45% 0 mm meteobridge W/m2
23:19 3.8 °C -7.6 °C 1028.7 hPa Calm     43% 0 mm meteobridge W/m2
23:24 3.8 °C -7.3 °C 1028.7 hPa Calm     44% 0 mm meteobridge W/m2
23:29 3.7 °C -7.7 °C 1028.7 hPa Calm     43% 0 mm meteobridge W/m2
23:34 3.8 °C -6.8 °C 1028.7 hPa Calm     46% 0 mm meteobridge W/m2
23:39 3.7 °C -6.9 °C 1028.7 hPa Calm     46% 0 mm meteobridge W/m2
23:44 3.6 °C -7.5 °C 1028.7 hPa Calm     44% 0 mm meteobridge W/m2
23:49 3.6 °C -7.2 °C 1028.7 hPa Calm     45% 0 mm meteobridge W/m2
23:54 3.5 °C -7 °C 1028.7 hPa Calm     46% 0 mm meteobridge W/m2
23:59 3.4 °C -6.9 °C 1028.7 hPa Calm     47% 0 mm meteobridge W/m2
EllijayWeather
Compliments of Weather Underground - 2.5 mb